createdAt,value
2023-03-02T00:05:31.141Z,5
2023-03-02T00:11:23.686Z,5
2023-03-02T00:17:16.923Z,5
2023-03-02T00:23:08.290Z,5
2023-03-02T00:29:01.425Z,4.9
2023-03-02T00:34:54.228Z,4.9
2023-03-02T00:40:46.821Z,5
2023-03-02T00:46:39.796Z,4.9
2023-03-02T00:52:17.099Z,4.9
2023-03-02T00:58:10.428Z,4.9
2023-03-02T01:04:04.391Z,4.9
2023-03-02T01:09:57.840Z,4.9
2023-03-02T01:15:50.510Z,4.9
2023-03-02T01:21:44.293Z,4.9
2023-03-02T01:27:22.113Z,4.9
2023-03-02T01:32:59.858Z,4.9
2023-03-02T01:38:53.748Z,4.8
2023-03-02T01:44:45.405Z,4.8
2023-03-02T01:50:23.377Z,4.8
2023-03-02T01:56:01.258Z,4.8
2023-03-02T02:01:55.058Z,4.7
2023-03-02T02:07:48.418Z,4.7
2023-03-02T02:13:41.625Z,4.8
2023-03-02T02:19:34.283Z,4.8
2023-03-02T02:25:12.030Z,4.8
2023-03-02T02:31:05.572Z,4.8
2023-03-02T02:36:59.100Z,4.8
2023-03-02T02:42:52.218Z,4.8
2023-03-02T02:48:14.112Z,4.7
2023-03-02T02:54:05.953Z,4.7
2023-03-02T02:59:43.958Z,4.8
2023-03-02T03:05:21.225Z,4.8
2023-03-02T03:10:58.584Z,4.7
2023-03-02T03:16:36.433Z,4.7
2023-03-02T03:22:29.384Z,4.7
2023-03-02T03:28:21.691Z,4.7
2023-03-02T03:34:15.791Z,4.6
2023-03-02T03:40:08.920Z,4.7
2023-03-02T03:46:03.318Z,4.7
2023-03-02T03:51:55.842Z,4.7
2023-03-02T03:57:50.516Z,4.7
2023-03-02T04:03:28.938Z,4.7
2023-03-02T04:09:06.651Z,4.7
2023-03-02T04:14:43.384Z,4.6
2023-03-02T04:20:05.215Z,4.6
2023-03-02T04:25:42.545Z,4.6
2023-03-02T04:31:21.084Z,4.5
2023-03-02T04:37:13.895Z,4.5
2023-03-02T04:43:06.440Z,4.5
2023-03-02T04:49:02.507Z,4.5
2023-03-02T04:54:54.686Z,4.5
2023-03-02T05:00:49.817Z,4.6
2023-03-02T05:06:42.624Z,4.5
2023-03-02T05:12:34.659Z,4.5
2023-03-02T05:18:27.851Z,4.4
2023-03-02T05:24:20.488Z,4.4
2023-03-02T05:30:12.959Z,4.4
2023-03-02T05:36:06.509Z,4.5
2023-03-02T05:41:59.945Z,4.5
2023-03-02T05:47:53.484Z,4.6
2023-03-02T05:53:46.675Z,4.5
2023-03-02T05:59:24.906Z,4.5
2023-03-02T06:05:02.092Z,4.6
2023-03-02T06:10:38.795Z,4.7
2023-03-02T06:16:16.614Z,4.8
2023-03-02T06:21:53.530Z,4.8
2023-03-02T06:27:31.903Z,4.9
2023-03-02T06:33:23.754Z,4.9
2023-03-02T06:39:01.411Z,4.9
2023-03-02T06:44:39.384Z,5
2023-03-02T06:50:16.972Z,4.9
2023-03-02T06:55:54.383Z,4.9
2023-03-02T07:01:33.144Z,5
2023-03-02T07:07:11.761Z,5.1
2023-03-02T07:12:49.710Z,5.1
2023-03-02T07:18:29.845Z,5.3
2023-03-02T07:24:07.702Z,5.3
2023-03-02T07:29:44.059Z,5.3
2023-03-02T07:35:22.457Z,5.4
2023-03-02T07:41:15.271Z,5.5
2023-03-02T07:47:08.447Z,5.4
2023-03-02T07:53:01.821Z,5.4
2023-03-02T07:58:38.810Z,5.6
2023-03-02T08:04:31.600Z,5.6
2023-03-02T08:10:24.930Z,5.8
2023-03-02T08:16:17.766Z,5.9
2023-03-02T08:22:09.420Z,5.8
2023-03-02T08:28:02.581Z,6
2023-03-02T08:33:40.662Z,5.8
2023-03-02T08:39:34.068Z,5.9
2023-03-02T08:45:27.995Z,5.9
2023-03-02T08:51:21.294Z,5.9
2023-03-02T08:57:14.522Z,5.9
2023-03-02T09:03:07.827Z,6.1
2023-03-02T09:09:01.627Z,6.1
2023-03-02T09:14:54.097Z,6
2023-03-02T09:20:46.808Z,6.3
2023-03-02T09:26:39.450Z,6.3
2023-03-02T09:32:32.132Z,6.1
2023-03-02T09:38:26.167Z,6.4
2023-03-02T09:44:29.162Z,6.9
2023-03-02T09:50:27.185Z,7
2023-03-02T09:56:21.826Z,6.8
2023-03-02T10:02:23.845Z,6.7
2023-03-02T10:08:07.297Z,6.3
2023-03-02T10:14:03.894Z,6.3
2023-03-02T10:19:57.061Z,6.3
2023-03-02T10:25:57.187Z,6.2
2023-03-02T10:31:35.035Z,6.1
2023-03-02T10:37:28.448Z,6.4
2023-03-02T10:43:20.626Z,6.3
2023-03-02T10:49:20.918Z,6.2
2023-03-02T10:55:23.151Z,6.6
2023-03-02T11:01:15.783Z,6.6
2023-03-02T11:07:11.080Z,6.8
2023-03-02T11:13:04.080Z,6.9
2023-03-02T11:18:42.518Z,6.8
2023-03-02T11:24:35.161Z,6.8
2023-03-02T11:30:13.177Z,6.8
2023-03-02T11:36:18.071Z,6.9
2023-03-02T11:42:16.108Z,6.8
2023-03-02T11:48:17.504Z,6.7
2023-03-02T11:54:18.068Z,7.1
2023-03-02T12:00:13.684Z,6.7
2023-03-02T12:05:37.292Z,6.6
2023-03-02T12:11:29.973Z,6.6
2023-03-02T12:17:25.101Z,6.6
2023-03-02T12:23:17.999Z,6.5
2023-03-02T12:29:10.695Z,6.4
2023-03-02T12:35:04.136Z,6.9
2023-03-02T12:40:57.512Z,6.9
2023-03-02T12:46:52.093Z,7.1
2023-03-02T12:52:49.123Z,6.9
2023-03-02T12:58:42.112Z,6.8
2023-03-02T13:04:35.574Z,6.9
2023-03-02T13:10:32.695Z,6.8
2023-03-02T13:16:25.276Z,6.8
2023-03-02T13:22:18.116Z,7
2023-03-02T13:28:10.995Z,6.9
2023-03-02T13:34:05.538Z,6.9
2023-03-02T13:39:58.654Z,6.6
2023-03-02T13:45:50.825Z,6.9
2023-03-02T13:52:00.676Z,6.8
2023-03-02T13:57:52.814Z,7
2023-03-02T14:03:46.985Z,7.1
2023-03-02T14:09:41.042Z,7.2
2023-03-02T14:15:19.158Z,7.3
2023-03-02T14:21:11.772Z,7.1
2023-03-02T14:27:06.372Z,6.9
2023-03-02T14:33:04.907Z,6.9
2023-03-02T14:38:57.472Z,6.9
2023-03-02T14:45:01.572Z,6.9
2023-03-02T14:50:53.849Z,6.9
2023-03-02T14:56:48.148Z,6.7
2023-03-02T15:02:57.436Z,6.6
2023-03-02T15:09:08.253Z,6.6
2023-03-02T15:14:45.199Z,6.5
2023-03-02T15:20:37.842Z,6.5
2023-03-02T15:26:34.492Z,6.4
2023-03-02T15:32:27.768Z,6.3
2023-03-02T15:38:20.757Z,6.3
2023-03-02T15:44:15.084Z,6.2
2023-03-02T15:50:08.207Z,6.1
2023-03-02T15:56:02.012Z,5.9
2023-03-02T16:01:50.564Z,5.9
2023-03-02T16:07:44.419Z,5.8
2023-03-02T16:13:38.043Z,5.8
2023-03-02T16:19:30.309Z,5.8
2023-03-02T16:25:24.135Z,5.8
2023-03-02T16:31:17.528Z,5.7
2023-03-02T16:37:11.141Z,5.6
2023-03-02T16:43:04.460Z,5.6
2023-03-02T16:48:43.022Z,5.5
2023-03-02T16:54:36.306Z,5.4
2023-03-02T17:00:30.027Z,5.4
2023-03-02T17:06:23.837Z,5.3
2023-03-02T17:12:21.664Z,5.2
2023-03-02T17:18:14.839Z,5.1
2023-03-02T17:24:07.705Z,5
2023-03-02T17:30:15.813Z,5
2023-03-02T17:36:08.466Z,4.9
2023-03-02T17:42:01.069Z,4.9
2023-03-02T17:47:58.090Z,4.8
2023-03-02T17:53:51.469Z,4.8
2023-03-02T17:59:51.863Z,4.8
2023-03-02T18:05:45.096Z,4.6
2023-03-02T18:11:41.702Z,4.5
2023-03-02T18:17:34.379Z,4.4
2023-03-02T18:23:11.851Z,4.4
2023-03-02T18:29:06.446Z,4.3
2023-03-02T18:35:00.170Z,4.3
2023-03-02T18:40:37.379Z,4.4
2023-03-02T18:46:29.892Z,4.4
2023-03-02T18:52:23.104Z,4.4
2023-03-02T18:58:15.826Z,4.4
2023-03-02T19:04:09.861Z,4.3
2023-03-02T19:10:01.759Z,4.3
2023-03-02T19:15:42.074Z,4.2
2023-03-02T19:21:37.265Z,4.1
2023-03-02T19:27:30.359Z,4.1
2023-03-02T19:33:24.080Z,4.1
2023-03-02T19:39:01.382Z,4
2023-03-02T19:44:54.338Z,3.9
2023-03-02T19:50:49.438Z,3.9
2023-03-02T19:56:42.785Z,4
2023-03-02T20:02:38.402Z,3.9
2023-03-02T20:08:15.602Z,3.9
2023-03-02T20:14:09.319Z,4
2023-03-02T20:20:13.417Z,4
2023-03-02T20:26:05.782Z,4
2023-03-02T20:31:59.439Z,4.1
2023-03-02T20:37:53.610Z,4.1
2023-03-02T20:43:49.640Z,4.1
2023-03-02T20:49:43.399Z,4.1
2023-03-02T20:55:36.585Z,4.1
2023-03-02T21:01:14.338Z,4.1
2023-03-02T21:07:07.660Z,4.1
2023-03-02T21:13:03.453Z,4.1
2023-03-02T21:18:59.212Z,4.1
2023-03-02T21:24:49.069Z,4.1
2023-03-02T21:30:45.492Z,4
2023-03-02T21:36:40.197Z,4
2023-03-02T21:42:34.395Z,3.9
2023-03-02T21:48:27.954Z,3.9
2023-03-02T21:54:07.488Z,3.9
2023-03-02T22:00:01.507Z,3.8
2023-03-02T22:05:54.142Z,3.8
2023-03-02T22:11:47.120Z,3.8
2023-03-02T22:17:41.470Z,3.7
2023-03-02T22:23:35.113Z,3.7
2023-03-02T22:29:27.672Z,3.7
2023-03-02T22:35:20.471Z,3.7
2023-03-02T22:41:14.033Z,3.6
2023-03-02T22:47:07.656Z,3.5
2023-03-02T22:53:01.367Z,3.4
2023-03-02T22:58:55.206Z,3.4
2023-03-02T23:04:48.956Z,3.4
2023-03-02T23:10:42.384Z,3.5
2023-03-02T23:16:36.616Z,3.6
2023-03-02T23:22:29.156Z,3.6
2023-03-02T23:28:21.704Z,3.6
2023-03-02T23:34:14.955Z,3.6
2023-03-02T23:40:07.244Z,3.6
2023-03-02T23:45:59.971Z,3.6
2023-03-02T23:51:52.427Z,3.8
2023-03-02T23:57:46.344Z,3.7
